• Join FlightAware (Why Join?)
  • Login
  • US Flag 
04:06AM EDT


 

Airport Tracker/Info


-or-


 

Live Flight TrackerFlight Track Log ✈ EJA131 ✈ 23-Apr-2013 ✈ KPDK - KSGJ

Flight Track Log - Related Links

Times and Time Zones

All times are in EDT time to prevent confusion due to time zone crossing. See the EJA131 flight status page for this flight to view local times or setup timezone preferences in your user account.

Time Position Orientation Groundspeed Altitude Reporting Facility
EDT Latitude Longitude Course Direction KTS MPH feet Rate Location/Type
09:42AM 33.9333 -84.2833 147° Southeast 199 229 4,500  Level Atlanta TRACON
09:43AM 33.9333 -84.3500 270° West 201 231 6,000 780 Climbing Atlanta TRACON
09:44AM 33.9000 -84.4000 231° Southwest 215 247 6,000  Level Atlanta TRACON
09:45AM 33.8500 -84.4333 209° Southwest 210 242 6,000  Level Atlanta TRACON
09:46AM 33.7833 -84.4667 203° Southwest 237 273 6,000  Level Atlanta TRACON
09:46AM 33.7333 -84.4667 180° South 269 310 6,000  Level Atlanta TRACON
09:47AM 33.3067 -83.8521 147° Southeast  Level Estimated
09:48AM 33.6500 -84.4500 171° South 264 304 6,000  Level Atlanta TRACON
09:48AM 33.5833 -84.4500 180° South 261 300 6,000  Level Atlanta TRACON
09:49AM 33.5000 -84.4500 180° South 265 305 6,000 1,380 Level Atlanta TRACON
09:52AM 33.3472 -84.3497 151° Southeast 291 335 10,800 2,160 Climbing Atlanta Center
09:53AM 33.2825 -84.2797 138° Southeast 307 353 13,400 2,460 Climbing Atlanta Center
09:54AM 33.2158 -84.2053 137° Southeast 316 364 15,800 1,920 Climbing Atlanta Center
09:55AM 33.1514 -84.1381 139° Southeast 331 381 17,300 1,500 Climbing Atlanta Center
09:56AM 33.0761 -84.0586 139° Southeast 347 399 18,900 1,680 Climbing Atlanta Center
09:57AM 32.9989 -83.9769 138° Southeast 357 411 20,700 1,800 Climbing Atlanta Center
09:58AM 32.9194 -83.8903 138° Southeast 371 427 22,500 1,620 Climbing Atlanta Center
09:59AM 32.8358 -83.8014 138° Southeast 387 445 24,000 720 Climbing Atlanta Center
10:00AM 32.7481 -83.7103 139° Southeast 406 467 24,000  Level Atlanta Center
10:01AM 32.6497 -83.6094 139° Southeast 438 504 24,000  Level Atlanta Center
10:02AM 32.5450 -83.5139 142° Southeast 463 533 24,000  Level Atlanta Center
10:03AM 32.4400 -83.4161 142° Southeast 478 550 24,000  Level Atlanta Center
10:04AM 32.3353 -83.3186 142° Southeast 483 556 24,000  Level Atlanta Center
10:04AM 32.2767 -83.2586 139° Southeast 482 555 24,000  Level Jacksonville Center
10:05AM 32.1831 -83.1725 142° Southeast 477 549 24,000  Level Jacksonville Center
10:06AM 32.0744 -83.0739 142° Southeast 482 555 24,000 -540 Level Jacksonville Center
10:07AM 31.9703 -82.9783 142° Southeast 487 560 23,000 -540 Descending Jacksonville Center
10:08AM 31.8639 -82.8803 142° Southeast 482 555 23,000  Level Jacksonville Center
10:09AM 31.7572 -82.7825 142° Southeast 482 555 23,000  Level Jacksonville Center
10:10AM 31.6528 -82.6850 142° Southeast 477 549 23,000 -60 Level Jacksonville Center
10:11AM 31.5481 -82.5903 142° Southeast 477 549 22,900 -840 Descending Jacksonville Center
10:12AM 31.4436 -82.4956 142° Southeast 482 555 21,400 -1,560 Descending Jacksonville Center
10:13AM 31.3261 -82.3989 145° Southeast 475 547 19,800 -1,560 Descending Jacksonville Center
10:14AM 31.2236 -82.3069 142° Southeast 475 547 18,300 -1,440 Descending Jacksonville Center
10:15AM 31.1269 -82.2156 141° Southeast 459 528 16,900 -1,200 Descending Jacksonville Center
10:16AM 31.0411 -82.1336 141° Southeast 431 496 16,000 -540 Descending Jacksonville Center
10:17AM 30.9403 -82.0472 144° Southeast 435 501 15,900 -60 Descending Jacksonville Center
10:18AM 30.8497 -81.9658 142° Southeast 429 494 15,900 -120 Level Jacksonville Center
10:19AM 30.7678 -81.8917 142° Southeast 426 490 15,700 -1,200 Descending Jacksonville Center
10:20AM 30.6692 -81.8058 143° Southeast 406 467 13,600 -2,040 Descending Jacksonville Center
10:21AM 30.5953 -81.7172 134° Southeast 399 459 11,500 -1,800 Descending Jacksonville Center
10:22AM 30.5403 -81.6481 133° Southeast 298 343 10,000 -840 Descending Jacksonville Center
10:23AM 30.4603 -81.5983 152° Southeast 322 371 9,900  Descending Jacksonville Center
10:24AM 30.3867 -81.5417 146° Southeast 326 375 10,000 -300 Climbing Jacksonville Center
10:25AM 30.3275 -81.4678 133° Southeast 311 358 9,400 -1,680 Descending Jacksonville Center
10:26AM 30.2661 -81.3942 134° Southeast 283 326 6,600 -1,680 Descending Jacksonville Center
10:27AM 30.2111 -81.3325 136° Southeast 283 326 6,000 -1,260 Descending Jacksonville Center
10:28AM 30.1436 -81.2856 149° Southeast 275 316 4,100 -1,080 Descending Jacksonville Center
10:29AM 30.0911 -81.2600 157° South 187 215 4,000 -600 Descending Jacksonville Center
10:30AM 30.0450 -81.2344 154° Southeast 195 224 3,000 -540 Descending Jacksonville Center
10:31AM 29.9944 -81.2114 158° South 186 214 3,000  Level Jacksonville Center
10:32AM 29.9400 -81.2028 172° South 194 223 3,000 -240 Level Jacksonville Center
10:33AM 29.9008 -81.2394 219° Southwest 178 205 2,600 -900 Descending Jacksonville Center
10:35AM 29.9222 -81.2797 302° West 135 155 1,100 -1,380 Descending Jacksonville Center
10:37AM 29.9500 -81.3333 270° West  Level FlightAware Approximate
10:44AM 29.9592 -81.3397 270° West  Level Estimated